createdAt,value
2022-10-19T00:00:20.332Z,14.79
2022-10-19T00:01:04.009Z,14.78
2022-10-19T00:01:36.858Z,14.77
2022-10-19T00:02:09.118Z,14.77
2022-10-19T00:02:43.822Z,14.78
2022-10-19T00:03:19.408Z,14.77
2022-10-19T00:03:55.907Z,14.75
2022-10-19T00:04:31.146Z,14.76
2022-10-19T00:05:03.276Z,14.75
2022-10-19T00:05:35.463Z,14.75
2022-10-19T00:06:17.579Z,14.74
2022-10-19T00:06:49.707Z,14.71
2022-10-19T00:07:21.849Z,14.72
2022-10-19T00:07:56.491Z,14.72
2022-10-19T00:08:28.542Z,14.71
2022-10-19T00:09:02.999Z,14.72
2022-10-19T00:09:37.693Z,14.72
2022-10-19T00:10:10.364Z,14.70
2022-10-19T00:10:42.544Z,14.69
2022-10-19T00:11:17.222Z,14.70
2022-10-19T00:11:50.878Z,14.69
2022-10-19T00:12:22.958Z,14.70
2022-10-19T00:12:57.757Z,14.69
2022-10-19T00:13:29.848Z,14.65
2022-10-19T00:14:02.288Z,14.66
2022-10-19T00:14:36.983Z,14.66
2022-10-19T00:15:09.894Z,14.65
2022-10-19T00:15:42.332Z,14.64
2022-10-19T00:16:19.051Z,14.65
2022-10-19T00:16:52.911Z,14.64
2022-10-19T00:17:25.080Z,14.63
2022-10-19T00:17:59.710Z,14.62
2022-10-19T00:18:31.787Z,14.61
2022-10-19T00:19:06.293Z,14.59
2022-10-19T00:19:40.938Z,14.58
2022-10-19T00:20:13.451Z,14.57
2022-10-19T00:20:45.522Z,14.57
2022-10-19T00:21:22.982Z,14.58
2022-10-19T00:21:56.438Z,14.56
2022-10-19T00:22:28.729Z,14.56
2022-10-19T00:23:03.378Z,14.55
2022-10-19T00:23:35.737Z,14.54
2022-10-19T00:24:08.761Z,14.54
2022-10-19T00:24:43.439Z,14.55
2022-10-19T00:25:15.773Z,14.54
2022-10-19T00:25:55.458Z,14.52
2022-10-19T00:26:30.207Z,14.50
2022-10-19T00:27:02.328Z,14.48
2022-10-19T00:27:34.567Z,14.49
2022-10-19T00:28:09.250Z,14.49
2022-10-19T00:28:42.378Z,14.49
2022-10-19T00:29:15.766Z,14.48
2022-10-19T00:29:50.663Z,14.47
2022-10-19T00:30:22.797Z,14.47
2022-10-19T00:30:54.972Z,14.47
2022-10-19T00:31:30.059Z,14.47
2022-10-19T00:32:02.130Z,14.46
2022-10-19T00:32:34.509Z,14.45
2022-10-19T00:33:06.794Z,14.45
2022-10-19T00:33:41.656Z,14.43
2022-10-19T00:34:13.800Z,14.43
2022-10-19T00:34:45.942Z,14.42
2022-10-19T00:35:20.750Z,14.42
2022-10-19T00:35:53.161Z,14.41
2022-10-19T00:36:33.009Z,14.40
2022-10-19T00:37:05.090Z,14.37
2022-10-19T00:37:37.172Z,14.38
2022-10-19T00:38:11.885Z,14.38
2022-10-19T00:38:43.989Z,14.37
2022-10-19T00:39:17.872Z,14.38
2022-10-19T00:39:52.666Z,14.37
2022-10-19T00:40:24.758Z,14.36
2022-10-19T00:40:57.197Z,14.37
2022-10-19T00:41:34.347Z,14.37
2022-10-19T00:42:06.678Z,14.36
2022-10-19T00:42:38.835Z,14.35
2022-10-19T00:43:14.240Z,14.37
2022-10-19T00:44:00.361Z,14.32
2022-10-19T00:45:14.106Z,14.26
2022-10-19T00:45:49.162Z,14.22
2022-10-19T00:46:21.839Z,14.22
2022-10-19T00:46:54.280Z,14.24
2022-10-19T00:47:27.027Z,14.24
2022-10-19T00:48:01.701Z,14.24
2022-10-19T00:48:33.864Z,14.25
2022-10-19T00:49:10.883Z,14.26
2022-10-19T00:49:48.178Z,14.26
2022-10-19T00:50:20.555Z,14.24
2022-10-19T00:50:54.590Z,14.23
2022-10-19T00:51:32.941Z,14.24
2022-10-19T00:52:07.983Z,14.21
2022-10-19T00:52:40.274Z,14.21
2022-10-19T00:53:15.246Z,14.21
2022-10-19T00:53:47.572Z,14.20
2022-10-19T00:54:20.305Z,14.19
2022-10-19T00:54:56.601Z,14.19
2022-10-19T00:55:28.901Z,14.17
2022-10-19T00:56:06.146Z,14.17
2022-10-19T00:56:43.778Z,14.15
2022-10-19T00:57:16.381Z,14.14
2022-10-19T00:57:48.560Z,14.14
2022-10-19T00:58:23.394Z,14.14
2022-10-19T00:58:55.943Z,14.14
2022-10-19T00:59:31.847Z,14.13
2022-10-19T01:00:09.883Z,14.11
2022-10-19T01:00:42.035Z,14.10
2022-10-19T01:01:17.883Z,14.11
2022-10-19T01:01:53.176Z,14.09
2022-10-19T01:02:25.295Z,14.10
2022-10-19T01:02:58.941Z,14.11
2022-10-19T01:03:33.751Z,14.10
2022-10-19T01:04:06.192Z,14.11
2022-10-19T01:04:46.213Z,14.09
2022-10-19T01:05:21.703Z,14.07
2022-10-19T01:05:53.944Z,14.05
2022-10-19T01:06:28.853Z,14.04
2022-10-19T01:07:04.728Z,14.02
2022-10-19T01:07:37.290Z,14.02
2022-10-19T01:08:11.474Z,14.03
2022-10-19T01:08:46.429Z,14.02
2022-10-19T01:09:18.597Z,14.01
2022-10-19T01:09:51.098Z,14.01
2022-10-19T01:10:34.267Z,14.01
2022-10-19T01:11:17.277Z,13.97
2022-10-19T01:11:59.642Z,13.98
2022-10-19T01:12:51.301Z,13.95
2022-10-19T01:13:38.374Z,13.92
2022-10-19T01:14:28.846Z,13.91
2022-10-19T01:15:11.251Z,13.92
2022-10-19T01:16:53.767Z,13.84
2022-10-19T01:17:39.861Z,13.85
2022-10-19T01:18:19.298Z,13.86
2022-10-19T01:19:01.095Z,13.83
2022-10-19T01:20:00.550Z,13.82
2022-10-19T01:21:07.817Z,13.77
2022-10-19T01:21:48.347Z,13.78
2022-10-19T01:22:38.263Z,13.75
2022-10-19T01:23:30.964Z,13.73
2022-10-19T01:24:38.453Z,13.69
2022-10-19T01:25:22.327Z,13.68
2022-10-19T01:26:04.586Z,13.71
2022-10-19T01:27:01.963Z,13.68
2022-10-19T01:27:41.340Z,13.68
2022-10-19T01:28:28.722Z,13.70
2022-10-19T01:29:14.329Z,13.64
2022-10-19T01:30:02.041Z,13.67
2022-10-19T01:30:48.078Z,13.66
2022-10-19T01:31:28.033Z,13.66
2022-10-19T01:32:05.203Z,13.68
2022-10-19T01:32:56.018Z,13.68
2022-10-19T01:33:37.663Z,13.68
2022-10-19T01:34:19.491Z,13.68
2022-10-19T01:35:00.144Z,13.69
2022-10-19T01:35:38.409Z,13.67
2022-10-19T01:36:35.659Z,13.64
2022-10-19T01:37:17.070Z,13.66
2022-10-19T01:37:54.060Z,13.66
2022-10-19T01:38:37.583Z,13.66
2022-10-19T01:39:13.591Z,13.62
2022-10-19T01:39:52.701Z,13.63
2022-10-19T01:40:33.767Z,13.63
2022-10-19T01:41:15.030Z,13.60
2022-10-19T01:41:58.288Z,13.60
2022-10-19T01:42:36.162Z,13.62
2022-10-19T01:43:14.978Z,13.60
2022-10-19T01:43:56.822Z,13.60
2022-10-19T01:44:37.074Z,13.61
2022-10-19T01:45:17.389Z,13.59
2022-10-19T01:45:55.363Z,13.58
2022-10-19T01:46:32.489Z,13.57
2022-10-19T01:47:11.177Z,13.56
2022-10-19T01:47:50.510Z,13.55
2022-10-19T01:48:26.265Z,13.54
2022-10-19T01:49:06.052Z,13.55
2022-10-19T01:49:42.395Z,13.54
2022-10-19T01:50:19.347Z,13.53
2022-10-19T01:51:00.659Z,13.54
2022-10-19T01:51:36.280Z,13.55
2022-10-19T01:52:11.251Z,13.54
2022-10-19T01:52:46.735Z,13.54
2022-10-19T01:53:20.670Z,13.56
2022-10-19T01:53:57.519Z,13.56
2022-10-19T01:54:37.055Z,13.54
2022-10-19T01:55:11.937Z,13.53
2022-10-19T01:55:47.978Z,13.55
2022-10-19T01:56:26.817Z,13.54
2022-10-19T01:57:02.048Z,13.56
2022-10-19T01:57:38.941Z,13.56
2022-10-19T01:58:19.269Z,13.56
2022-10-19T01:58:54.252Z,13.49
2022-10-19T01:59:30.082Z,13.56
2022-10-19T02:00:07.614Z,13.56
2022-10-19T02:00:52.827Z,13.56
2022-10-19T02:01:30.495Z,13.54
2022-10-19T02:02:05.584Z,13.54
2022-10-19T02:02:42.822Z,13.51
2022-10-19T02:03:18.605Z,13.52
2022-10-19T02:03:52.306Z,13.53
2022-10-19T02:04:28.657Z,13.54
2022-10-19T02:05:03.368Z,13.52
2022-10-19T02:05:37.176Z,13.53
2022-10-19T02:06:14.490Z,13.53
2022-10-19T02:06:47.176Z,13.50
2022-10-19T02:07:22.977Z,13.51
2022-10-19T02:08:01.563Z,13.49
2022-10-19T02:08:40.684Z,13.53
2022-10-19T02:09:18.234Z,13.47
2022-10-19T02:09:53.264Z,13.46
2022-10-19T02:10:26.558Z,13.44
2022-10-19T02:11:00.119Z,13.43
2022-10-19T02:11:35.971Z,13.44
2022-10-19T02:12:10.734Z,13.45
2022-10-19T02:12:44.177Z,13.43
2022-10-19T02:13:19.958Z,13.43
2022-10-19T02:13:59.298Z,13.43
2022-10-19T02:14:37.631Z,13.40
2022-10-19T02:15:12.194Z,13.38
2022-10-19T02:15:49.587Z,13.38
2022-10-19T02:16:30.276Z,13.36
2022-10-19T02:17:06.290Z,13.34
2022-10-19T02:17:44.328Z,13.36
2022-10-19T02:18:23.535Z,13.34
2022-10-19T02:18:57.824Z,13.34
2022-10-19T02:19:32.637Z,13.35
2022-10-19T02:20:06.125Z,13.35
2022-10-19T02:20:38.212Z,13.35
2022-10-19T02:21:10.676Z,13.35
2022-10-19T02:21:45.403Z,13.35
2022-10-19T02:22:17.494Z,13.34
2022-10-19T02:22:50.246Z,13.34
2022-10-19T02:23:28.565Z,13.34
2022-10-19T02:24:00.730Z,13.33
2022-10-19T02:24:32.958Z,13.34
2022-10-19T02:25:09.534Z,13.34
2022-10-19T02:25:41.678Z,13.31
2022-10-19T02:26:13.848Z,13.31
2022-10-19T02:26:49.121Z,13.31
2022-10-19T02:27:21.829Z,13.29
2022-10-19T02:27:54.017Z,13.30
2022-10-19T02:28:29.302Z,13.31
2022-10-19T02:29:01.762Z,13.28
2022-10-19T02:29:34.898Z,13.28
2022-10-19T02:30:11.407Z,13.28
2022-10-19T02:30:43.636Z,13.29
2022-10-19T02:31:18.365Z,13.29
2022-10-19T02:31:53.053Z,13.30
2022-10-19T02:32:26.390Z,13.30
2022-10-19T02:32:58.499Z,13.29
2022-10-19T02:33:33.768Z,13.28
2022-10-19T02:34:06.442Z,13.28
2022-10-19T02:34:39.754Z,13.28
2022-10-19T02:35:17.366Z,13.28
2022-10-19T02:35:49.907Z,13.25
2022-10-19T02:36:22.355Z,13.25
2022-10-19T02:36:57.395Z,13.27
2022-10-19T02:37:29.815Z,13.27
2022-10-19T02:38:04.147Z,13.26
2022-10-19T02:38:39.111Z,13.28
2022-10-19T02:39:11.380Z,13.27
2022-10-19T02:39:43.471Z,13.25
2022-10-19T02:40:18.334Z,13.25
2022-10-19T02:40:57.708Z,13.28
2022-10-19T02:41:34.950Z,13.24
2022-10-19T02:42:14.838Z,13.19
2022-10-19T02:42:52.771Z,13.18
2022-10-19T02:43:27.406Z,13.19
2022-10-19T02:44:07.910Z,13.17
2022-10-19T02:44:44.550Z,13.16
2022-10-19T02:45:21.902Z,13.15
2022-10-19T02:46:03.131Z,13.14
2022-10-19T02:46:43.630Z,13.10
2022-10-19T02:47:19.309Z,13.09
2022-10-19T02:47:57.615Z,13.11
2022-10-19T02:48:32.400Z,13.10
2022-10-19T02:49:06.956Z,13.11
2022-10-19T02:49:42.218Z,13.13
2022-10-19T02:50:14.599Z,13.13
2022-10-19T02:50:47.875Z,13.10
2022-10-19T02:51:36.926Z,13.11
2022-10-19T02:52:10.807Z,13.09
2022-10-19T02:52:42.946Z,13.11
2022-10-19T02:53:18.026Z,13.12
2022-10-19T02:53:50.123Z,13.10
2022-10-19T02:54:22.381Z,13.12
2022-10-19T02:54:57.014Z,13.14
2022-10-19T02:55:30.206Z,13.13
2022-10-19T02:56:02.342Z,13.10
2022-10-19T02:56:38.181Z,13.11
2022-10-19T02:57:16.586Z,13.09
2022-10-19T02:57:48.654Z,13.07
2022-10-19T02:58:23.756Z,13.09
2022-10-19T02:58:56.186Z,13.06
2022-10-19T02:59:29.239Z,13.06
2022-10-19T03:00:04.049Z,13.06
2022-10-19T03:00:36.389Z,13.07
2022-10-19T03:01:08.568Z,13.09
2022-10-19T03:01:43.235Z,13.09
2022-10-19T03:02:18.746Z,13.08
2022-10-19T03:02:50.857Z,13.07
2022-10-19T03:03:22.935Z,13.05
2022-10-19T03:03:55.087Z,13.07
2022-10-19T03:04:29.814Z,13.09
2022-10-19T03:05:02.019Z,13.07
2022-10-19T03:05:34.118Z,13.09
2022-10-19T03:06:08.761Z,13.10
2022-10-19T03:06:40.878Z,13.08
2022-10-19T03:07:15.983Z,13.08
2022-10-19T03:07:50.650Z,13.08
2022-10-19T03:08:22.706Z,13.06
2022-10-19T03:08:54.793Z,13.07
2022-10-19T03:09:29.599Z,13.07
2022-10-19T03:10:01.845Z,13.06
2022-10-19T03:10:34.099Z,13.05
2022-10-19T03:11:08.896Z,13.05
2022-10-19T03:11:40.962Z,13.05
2022-10-19T03:12:13.689Z,13.03
2022-10-19T03:12:48.354Z,13.03
2022-10-19T03:13:20.435Z,13.04
2022-10-19T03:13:52.659Z,13.06
2022-10-19T03:14:27.315Z,13.05
2022-10-19T03:14:59.385Z,13.05
2022-10-19T03:15:31.529Z,13.06
2022-10-19T03:16:11.657Z,13.04
2022-10-19T03:16:46.319Z,13.05
2022-10-19T03:17:18.566Z,13.06
2022-10-19T03:17:55.658Z,13.07
2022-10-19T03:18:27.727Z,13.06
2022-10-19T03:18:59.795Z,13.07
2022-10-19T03:19:34.571Z,13.07
2022-10-19T03:20:07.991Z,13.06
2022-10-19T03:20:40.082Z,13.06
2022-10-19T03:21:16.355Z,13.05
2022-10-19T03:21:48.450Z,13.05
2022-10-19T03:22:20.545Z,13.03
2022-10-19T03:23:28.371Z,13.03
2022-10-19T03:24:01.298Z,13.03
2022-10-19T03:24:34.128Z,13.02
2022-10-19T03:25:09.958Z,13.02
2022-10-19T03:25:42.014Z,13.00
2022-10-19T03:26:15.880Z,13.00
2022-10-19T03:26:50.539Z,12.99
2022-10-19T03:27:22.601Z,12.98
2022-10-19T03:27:54.663Z,13.00
2022-10-19T03:28:26.788Z,13.01
2022-10-19T03:29:01.602Z,13.00
2022-10-19T03:29:33.718Z,13.00
2022-10-19T03:30:06.758Z,13.01
2022-10-19T03:30:41.413Z,13.01
2022-10-19T03:31:13.551Z,13.02
2022-10-19T03:31:48.197Z,13.01
2022-10-19T03:32:22.865Z,12.99
2022-10-19T03:32:54.955Z,13.00
2022-10-19T03:33:27.138Z,13.00
2022-10-19T03:34:02.202Z,13.00
2022-10-19T03:34:34.299Z,12.98
2022-10-19T03:35:07.794Z,13.00
2022-10-19T03:35:42.418Z,12.99
2022-10-19T03:36:23.970Z,12.97
2022-10-19T03:36:56.760Z,12.97
2022-10-19T03:37:28.838Z,12.99
2022-10-19T03:38:03.534Z,12.97
2022-10-19T03:38:35.703Z,12.97
2022-10-19T03:39:10.596Z,12.97
2022-10-19T03:39:45.313Z,12.97
2022-10-19T03:40:17.491Z,12.96
2022-10-19T03:40:49.626Z,12.97
2022-10-19T03:41:23.129Z,12.97
2022-10-19T03:41:57.794Z,12.98
2022-10-19T03:42:29.974Z,12.97
2022-10-19T03:43:02.038Z,12.97
2022-10-19T03:43:37.034Z,12.99
2022-10-19T03:44:10.701Z,12.97
2022-10-19T03:44:45.402Z,12.97
2022-10-19T03:45:17.476Z,12.97
2022-10-19T03:45:49.539Z,12.97
2022-10-19T03:46:25.073Z,12.98
2022-10-19T03:46:59.739Z,12.97
2022-10-19T03:47:32.119Z,12.98
2022-10-19T03:48:07.616Z,12.98
2022-10-19T03:48:39.746Z,12.97
2022-10-19T03:49:12.206Z,12.94
2022-10-19T03:49:48.479Z,12.95
2022-10-19T03:50:21.314Z,12.96
2022-10-19T03:50:59.042Z,12.97
2022-10-19T03:51:34.517Z,12.99
2022-10-19T03:52:06.601Z,12.96
2022-10-19T03:52:38.675Z,12.97
2022-10-19T03:53:13.318Z,12.99
2022-10-19T03:53:46.663Z,12.97
2022-10-19T03:54:19.930Z,12.97
2022-10-19T03:54:57.077Z,12.97
2022-10-19T03:55:30.558Z,12.96
2022-10-19T03:56:04.918Z,12.94
2022-10-19T03:56:39.586Z,12.96
2022-10-19T03:57:12.647Z,12.95
2022-10-19T03:57:44.748Z,12.94
2022-10-19T03:58:16.841Z,12.95
2022-10-19T03:58:52.781Z,12.94
2022-10-19T03:59:24.972Z,12.94
2022-10-19T03:59:57.135Z,12.96
2022-10-19T04:00:31.839Z,12.97
2022-10-19T04:01:08.653Z,12.96
2022-10-19T04:01:42.819Z,12.96
2022-10-19T04:02:20.073Z,12.94
2022-10-19T04:02:52.137Z,12.93
2022-10-19T04:03:24.250Z,12.94
2022-10-19T04:04:00.186Z,12.96
2022-10-19T04:04:32.366Z,12.93
2022-10-19T04:05:05.397Z,12.91
2022-10-19T04:05:40.064Z,12.91
2022-10-19T04:06:18.216Z,12.93
2022-10-19T04:06:54.006Z,12.92
2022-10-19T04:07:28.716Z,12.91
2022-10-19T04:08:00.848Z,12.89
2022-10-19T04:08:32.981Z,12.89
2022-10-19T04:09:08.889Z,12.87
2022-10-19T04:09:41.084Z,12.86
2022-10-19T04:10:13.206Z,12.86
2022-10-19T04:10:47.939Z,12.87
2022-10-19T04:11:22.592Z,12.87
2022-10-19T04:11:57.328Z,12.88
2022-10-19T04:12:29.460Z,12.88
2022-10-19T04:13:01.546Z,12.89
2022-10-19T04:13:37.895Z,12.88
2022-10-19T04:14:15.962Z,12.88
2022-10-19T04:14:58.011Z,12.86
2022-10-19T04:15:30.268Z,12.84
2022-10-19T04:16:02.344Z,12.83
2022-10-19T04:16:37.543Z,12.85
2022-10-19T04:17:10.738Z,12.85
2022-10-19T04:17:48.520Z,12.86
2022-10-19T04:18:23.358Z,12.83
2022-10-19T04:18:55.929Z,12.82
2022-10-19T04:19:28.053Z,12.83
2022-10-19T04:20:02.752Z,12.83
2022-10-19T04:20:34.966Z,12.83
2022-10-19T04:21:07.450Z,12.79
2022-10-19T04:21:43.867Z,12.81
2022-10-19T04:22:16.133Z,12.81
2022-10-19T04:22:48.185Z,12.84
2022-10-19T04:23:22.831Z,12.83
2022-10-19T04:23:59.987Z,12.83
2022-10-19T04:24:34.641Z,12.84
2022-10-19T04:25:09.700Z,12.85
2022-10-19T04:25:41.916Z,12.84
2022-10-19T04:26:14.010Z,12.85
2022-10-19T04:26:51.049Z,12.86
2022-10-19T04:27:23.158Z,12.83
2022-10-19T04:27:55.252Z,12.86
2022-10-19T04:28:30.286Z,12.89
2022-10-19T04:29:02.513Z,12.89
2022-10-19T04:29:37.425Z,12.88
2022-10-19T04:30:10.644Z,12.86
2022-10-19T04:30:42.756Z,12.87
2022-10-19T04:31:17.620Z,12.88
2022-10-19T04:31:50.787Z,12.90
2022-10-19T04:32:22.883Z,12.88
2022-10-19T04:33:00.217Z,12.87
2022-10-19T04:33:32.697Z,12.88
2022-10-19T04:34:05.346Z,12.86
2022-10-19T04:34:40.238Z,12.87
2022-10-19T04:35:12.464Z,12.85
2022-10-19T04:35:44.572Z,12.85
2022-10-19T04:36:19.271Z,12.87
2022-10-19T04:36:51.353Z,12.89
2022-10-19T04:37:23.462Z,12.89
2022-10-19T04:37:58.097Z,12.91
2022-10-19T04:38:30.945Z,12.89
2022-10-19T04:39:03.343Z,12.89
2022-10-19T04:39:40.850Z,12.90
2022-10-19T04:40:15.046Z,12.90
2022-10-19T04:40:47.397Z,12.87
2022-10-19T04:41:23.935Z,12.86
2022-10-19T04:41:56.007Z,12.83
2022-10-19T04:42:28.113Z,12.86
2022-10-19T04:43:02.739Z,12.82
2022-10-19T04:43:35.608Z,12.83
2022-10-19T04:44:07.889Z,12.84
2022-10-19T04:44:42.557Z,12.86
2022-10-19T04:45:14.877Z,12.88
2022-10-19T04:45:46.944Z,12.90
2022-10-19T04:46:22.763Z,12.91
2022-10-19T04:46:54.830Z,12.91
2022-10-19T04:47:26.922Z,12.91
2022-10-19T04:48:04.410Z,12.91
2022-10-19T04:48:38.129Z,12.89
2022-10-19T04:49:10.452Z,12.88
2022-10-19T04:49:45.328Z,12.87
2022-10-19T04:50:17.630Z,12.89
2022-10-19T04:50:49.909Z,12.87
2022-10-19T04:51:29.942Z,12.86
2022-10-19T04:52:02.107Z,12.86
2022-10-19T04:52:35.347Z,12.87
2022-10-19T04:53:10.072Z,12.84
2022-10-19T04:53:43.266Z,12.84
2022-10-19T04:54:15.436Z,12.83
2022-10-19T04:54:50.194Z,12.82
2022-10-19T04:55:22.274Z,12.83
2022-10-19T04:55:54.467Z,12.84
2022-10-19T04:56:31.039Z,12.85
2022-10-19T04:57:03.999Z,12.82
2022-10-19T04:57:36.506Z,12.83
2022-10-19T04:58:11.644Z,12.81
2022-10-19T04:58:44.385Z,12.79
2022-10-19T04:59:16.449Z,12.79
2022-10-19T04:59:51.095Z,12.81
2022-10-19T05:00:23.170Z,12.80
2022-10-19T05:00:55.473Z,12.78
2022-10-19T05:01:32.482Z,12.78
2022-10-19T05:02:04.631Z,12.74
2022-10-19T05:02:39.307Z,12.77
2022-10-19T05:03:14.626Z,12.78
2022-10-19T05:03:47.345Z,12.80
2022-10-19T05:04:22.007Z,12.79
2022-10-19T05:04:54.077Z,12.79
2022-10-19T05:05:26.910Z,12.80
2022-10-19T05:05:59.383Z,12.82
2022-10-19T05:06:34.851Z,12.83
2022-10-19T05:07:06.925Z,12.83
2022-10-19T05:07:39.102Z,12.85
2022-10-19T05:08:14.286Z,12.86
2022-10-19T05:08:48.431Z,12.86
2022-10-19T05:09:20.557Z,12.86
2022-10-19T05:09:55.297Z,12.85
2022-10-19T05:10:27.467Z,12.86
2022-10-19T05:11:03.177Z,12.86
2022-10-19T05:11:37.870Z,12.86
2022-10-19T05:12:10.000Z,12.86
2022-10-19T05:12:42.090Z,12.88
2022-10-19T05:13:16.721Z,12.90
2022-10-19T05:13:49.116Z,12.90
2022-10-19T05:14:24.070Z,12.92
2022-10-19T05:14:56.182Z,12.93
2022-10-19T05:15:28.445Z,12.94
2022-10-19T05:16:05.015Z,12.95
2022-10-19T05:16:37.159Z,12.96
2022-10-19T05:17:12.846Z,12.94
2022-10-19T05:17:44.922Z,12.94
2022-10-19T05:18:19.586Z,12.93
2022-10-19T05:18:56.820Z,12.89
2022-10-19T05:19:28.951Z,12.87
2022-10-19T05:20:03.630Z,12.87
2022-10-19T05:20:35.727Z,12.86
2022-10-19T05:21:09.530Z,12.87
2022-10-19T05:21:44.205Z,12.83
2022-10-19T05:22:16.359Z,12.82
2022-10-19T05:22:48.551Z,12.78
2022-10-19T05:23:23.276Z,12.77
2022-10-19T05:23:56.660Z,12.72
2022-10-19T05:24:28.741Z,12.69
2022-10-19T05:25:03.407Z,12.67
2022-10-19T05:25:35.532Z,12.68
2022-10-19T05:26:09.968Z,12.70
2022-10-19T05:26:44.626Z,12.70
2022-10-19T05:27:16.782Z,12.74
2022-10-19T05:27:51.565Z,12.74
2022-10-19T05:28:26.298Z,12.76
2022-10-19T05:29:01.952Z,12.76
2022-10-19T05:29:36.793Z,12.76
2022-10-19T05:30:10.021Z,12.77
2022-10-19T05:30:46.638Z,12.78
2022-10-19T05:31:23.675Z,12.79
2022-10-19T05:31:55.765Z,12.83
2022-10-19T05:32:28.219Z,12.84
2022-10-19T05:33:02.882Z,12.88
2022-10-19T05:33:38.642Z,12.88
2022-10-19T05:34:13.373Z,12.90
2022-10-19T05:34:45.474Z,12.91
2022-10-19T05:35:20.088Z,12.92
2022-10-19T05:35:57.112Z,12.94
2022-10-19T05:36:34.506Z,12.95
2022-10-19T05:37:06.653Z,12.96
2022-10-19T05:37:41.363Z,12.97
2022-10-19T05:38:13.485Z,12.98
2022-10-19T05:38:47.171Z,13.00
2022-10-19T05:39:21.915Z,13.01
2022-10-19T05:39:54.687Z,13.03
2022-10-19T05:40:26.778Z,13.04
2022-10-19T05:41:01.450Z,13.06
2022-10-19T05:41:33.757Z,13.08
2022-10-19T05:42:08.417Z,13.10
2022-10-19T05:42:40.553Z,13.12
2022-10-19T05:43:12.676Z,13.14
2022-10-19T05:43:47.799Z,13.14
2022-10-19T05:44:21.739Z,13.14
2022-10-19T05:44:53.807Z,13.13
2022-10-19T05:45:28.490Z,13.16
2022-10-19T05:46:03.957Z,13.15
2022-10-19T05:46:39.450Z,13.17
2022-10-19T05:47:11.515Z,13.17
2022-10-19T05:47:43.580Z,13.19
2022-10-19T05:48:18.392Z,13.20
2022-10-19T05:48:54.768Z,13.21
2022-10-19T05:49:29.614Z,13.18
2022-10-19T05:50:01.741Z,13.21
2022-10-19T05:50:33.859Z,13.20
2022-10-19T05:51:10.943Z,13.19
2022-10-19T05:51:43.514Z,13.18
2022-10-19T05:52:17.800Z,13.19
2022-10-19T05:52:52.443Z,13.20
2022-10-19T05:53:24.650Z,13.21
2022-10-19T05:53:57.516Z,13.25
2022-10-19T05:54:32.369Z,13.24
2022-10-19T05:55:05.348Z,13.26
2022-10-19T05:55:37.527Z,13.26
2022-10-19T05:56:16.666Z,13.29
2022-10-19T05:56:49.029Z,13.28
2022-10-19T05:57:23.733Z,13.31
2022-10-19T05:57:55.814Z,13.30
2022-10-19T05:58:27.963Z,13.31
2022-10-19T05:59:05.578Z,13.32
2022-10-19T05:59:37.725Z,13.32
2022-10-19T06:00:11.854Z,13.33
2022-10-19T06:00:46.874Z,13.35
2022-10-19T06:01:20.186Z,13.35
2022-10-19T06:01:54.955Z,13.36
2022-10-19T06:02:27.127Z,13.35
2022-10-19T06:02:59.354Z,13.35
2022-10-19T06:03:34.206Z,13.35
2022-10-19T06:04:10.941Z,13.36
2022-10-19T06:04:45.714Z,13.36
2022-10-19T06:05:17.827Z,13.36
2022-10-19T06:05:50.388Z,13.35
2022-10-19T06:06:26.149Z,13.37
2022-10-19T06:06:58.205Z,13.38
2022-10-19T06:07:30.425Z,13.39
2022-10-19T06:08:02.502Z,13.41
2022-10-19T06:08:38.258Z,13.43
2022-10-19T06:09:10.767Z,13.42
2022-10-19T06:09:43.002Z,13.43
2022-10-19T06:10:17.830Z,13.43
2022-10-19T06:10:50.527Z,13.43
2022-10-19T06:11:27.675Z,13.44
2022-10-19T06:11:59.814Z,13.43
2022-10-19T06:12:34.544Z,13.44
2022-10-19T06:13:06.684Z,13.42
2022-10-19T06:13:39.595Z,13.43
2022-10-19T06:14:17.148Z,13.41
2022-10-19T06:14:51.354Z,13.38
2022-10-19T06:15:23.433Z,13.35
2022-10-19T06:15:58.135Z,13.35
2022-10-19T06:16:31.487Z,13.35
2022-10-19T06:17:06.800Z,13.34
2022-10-19T06:17:38.875Z,13.32
2022-10-19T06:18:13.223Z,13.31
2022-10-19T06:18:48.782Z,13.31
2022-10-19T06:19:23.525Z,13.32
2022-10-19T06:19:58.213Z,13.32
2022-10-19T06:20:30.326Z,13.33
2022-10-19T06:21:04.073Z,13.32
2022-10-19T06:21:41.824Z,13.32
2022-10-19T06:22:17.047Z,13.30
2022-10-19T06:22:51.708Z,13.31
2022-10-19T06:23:23.782Z,13.32
2022-10-19T06:23:57.944Z,13.33
2022-10-19T06:24:32.859Z,13.34
2022-10-19T06:25:05.754Z,13.35
2022-10-19T06:25:37.911Z,13.37
2022-10-19T06:26:15.333Z,13.40
2022-10-19T06:26:47.412Z,13.40
2022-10-19T06:27:22.120Z,13.42
2022-10-19T06:27:54.253Z,13.44
2022-10-19T06:28:26.420Z,13.45
2022-10-19T06:29:03.903Z,13.47
2022-10-19T06:29:36.528Z,13.45
2022-10-19T06:30:09.938Z,13.48
2022-10-19T06:30:44.695Z,13.49
2022-10-19T06:31:17.394Z,13.50
2022-10-19T06:31:49.493Z,13.51
2022-10-19T06:32:24.141Z,13.52
2022-10-19T06:32:56.318Z,13.52
2022-10-19T06:33:30.135Z,13.54
2022-10-19T06:34:05.317Z,13.55
2022-10-19T06:34:40.205Z,13.52
2022-10-19T06:35:12.318Z,13.47
2022-10-19T06:35:46.959Z,13.42
2022-10-19T06:36:21.191Z,13.40
2022-10-19T06:36:53.253Z,13.39
2022-10-19T06:37:27.925Z,13.40
2022-10-19T06:38:00.218Z,13.40
2022-10-19T06:38:32.451Z,13.41
2022-10-19T06:39:07.485Z,13.43
2022-10-19T06:39:39.745Z,13.41
2022-10-19T06:40:12.571Z,13.41
2022-10-19T06:40:49.129Z,13.41
2022-10-19T06:41:21.293Z,13.40
2022-10-19T06:41:56.010Z,13.42
2022-10-19T06:42:30.382Z,13.42
2022-10-19T06:43:02.727Z,13.42
2022-10-19T06:43:37.991Z,13.43
2022-10-19T06:44:10.122Z,13.44
2022-10-19T06:44:44.835Z,13.45
2022-10-19T06:45:17.037Z,13.46
2022-10-19T06:45:49.114Z,13.47
2022-10-19T06:46:26.148Z,13.48
2022-10-19T06:46:58.235Z,13.50
2022-10-19T06:47:33.380Z,13.50
2022-10-19T06:48:09.571Z,13.51
2022-10-19T06:48:41.715Z,13.51
2022-10-19T06:49:17.644Z,13.53
2022-10-19T06:49:52.282Z,13.54
2022-10-19T06:50:24.378Z,13.53
2022-10-19T06:50:59.795Z,13.54
2022-10-19T06:51:32.421Z,13.54
2022-10-19T06:52:07.811Z,13.55
2022-10-19T06:52:40.861Z,13.56
2022-10-19T06:53:15.799Z,13.54
2022-10-19T06:53:48.980Z,13.49
2022-10-19T06:54:25.776Z,13.43
2022-10-19T06:54:57.846Z,13.40
2022-10-19T06:55:32.509Z,13.38
2022-10-19T06:56:06.772Z,13.34
2022-10-19T06:56:41.510Z,13.32
2022-10-19T06:57:13.665Z,13.33
2022-10-19T06:57:45.749Z,13.33
2022-10-19T06:58:20.429Z,13.33
2022-10-19T06:58:53.202Z,13.31
2022-10-19T06:59:28.044Z,13.32
2022-10-19T07:00:00.135Z,13.31
2022-10-19T07:00:32.371Z,13.30
2022-10-19T07:01:09.226Z,13.27
2022-10-19T07:01:41.373Z,13.25
2022-10-19T07:02:13.694Z,13.27
2022-10-19T07:02:48.364Z,13.24
2022-10-19T07:03:20.430Z,13.25
2022-10-19T07:03:53.015Z,13.25
2022-10-19T07:04:27.770Z,13.28
2022-10-19T07:05:06.912Z,13.30
2022-10-19T07:05:41.872Z,13.29
2022-10-19T07:06:14.758Z,13.32
2022-10-19T07:06:49.424Z,13.34
2022-10-19T07:07:21.509Z,13.35
2022-10-19T07:07:53.603Z,13.37
2022-10-19T07:08:29.229Z,13.38
2022-10-19T07:09:02.738Z,13.38
2022-10-19T07:09:37.584Z,13.37
2022-10-19T07:10:10.168Z,13.37
2022-10-19T07:10:42.285Z,13.39
2022-10-19T07:11:19.498Z,13.40
2022-10-19T07:11:52.223Z,13.41
2022-10-19T07:12:24.415Z,13.42
2022-10-19T07:12:59.228Z,13.41
2022-10-19T07:13:31.666Z,13.41
2022-10-19T07:14:06.458Z,13.40
2022-10-19T07:14:39.800Z,13.41
2022-10-19T07:15:14.566Z,13.42
2022-10-19T07:15:47.150Z,13.44
2022-10-19T07:16:21.183Z,13.43
2022-10-19T07:16:56.354Z,13.43
2022-10-19T07:17:28.443Z,13.42
2022-10-19T07:18:00.532Z,13.45
2022-10-19T07:18:35.617Z,13.42
2022-10-19T07:19:07.711Z,13.41
2022-10-19T07:19:42.345Z,13.43
2022-10-19T07:20:17.135Z,13.44
2022-10-19T07:20:55.030Z,13.47
2022-10-19T07:21:29.675Z,13.49
2022-10-19T07:22:02.125Z,13.49
2022-10-19T07:22:34.289Z,13.49
2022-10-19T07:23:09.002Z,13.51
2022-10-19T07:23:43.043Z,13.53
2022-10-19T07:24:17.690Z,13.50
2022-10-19T07:24:49.846Z,13.51
2022-10-19T07:25:25.108Z,13.48
2022-10-19T07:26:01.805Z,13.49
2022-10-19T07:26:36.800Z,13.51
2022-10-19T07:27:08.988Z,13.53
2022-10-19T07:27:41.174Z,13.56
2022-10-19T07:28:16.017Z,13.59
2022-10-19T07:28:49.112Z,13.61
2022-10-19T07:29:23.782Z,13.61
2022-10-19T07:29:55.847Z,13.62
2022-10-19T07:30:28.012Z,13.64